createdAt,value
2019-01-24T00:02:44.255Z,77.15
2019-01-24T00:05:53.507Z,76.97
2019-01-24T00:11:51.794Z,76.87
2019-01-24T00:20:26.499Z,76.96
2019-01-24T00:22:56.072Z,77.24
2019-01-24T00:26:05.564Z,76.88
2019-01-24T00:28:37.597Z,76.67
2019-01-24T00:31:46.585Z,76.99
2019-01-24T00:40:18.236Z,76.87
2019-01-24T00:46:04.125Z,76.90
2019-01-24T00:49:12.804Z,76.84
2019-01-24T00:51:43.334Z,76.67
2019-01-24T00:57:27.471Z,76.65
2019-01-24T00:59:57.531Z,76.34
2019-01-24T01:02:27.029Z,76.57
2019-01-24T01:05:36.243Z,76.44
2019-01-24T01:08:45.323Z,76.92
2019-01-24T01:14:24.014Z,76.79
2019-01-24T01:31:41.773Z,76.74
2019-01-24T01:34:14.224Z,77.10
2019-01-24T01:37:23.052Z,77.13
2019-01-24T01:45:40.302Z,76.93
2019-01-24T01:48:50.052Z,76.95
2019-01-24T01:51:20.620Z,77.88
2019-01-24T01:57:15.328Z,77.34
2019-01-24T01:59:44.930Z,76.99
2019-01-24T02:02:54.920Z,77.04
2019-01-24T02:08:26.005Z,77.17
2019-01-24T02:14:46.359Z,77.29
2019-01-24T02:20:31.498Z,77.60
2019-01-24T02:29:10.739Z,76.58
2019-01-24T02:34:49.820Z,76.27
2019-01-24T02:40:37.840Z,76.05
2019-01-24T02:47:15.691Z,75.51
2019-01-24T02:49:46.117Z,75.23
2019-01-24T02:52:17.084Z,74.86
2019-01-24T02:54:47.099Z,75.15
2019-01-24T02:57:56.747Z,75.29
2019-01-24T03:01:05.944Z,75.46
2019-01-24T03:12:36.701Z,75.02
2019-01-24T03:18:27.881Z,75.13
2019-01-24T03:23:53.179Z,74.70
2019-01-24T03:26:22.647Z,74.93
2019-01-24T03:28:52.073Z,74.91
2019-01-24T03:32:00.840Z,75.25
2019-01-24T03:37:42.713Z,74.50
2019-01-24T03:46:47.875Z,74.79
2019-01-24T03:49:18.161Z,74.67
2019-01-24T03:52:26.936Z,74.19
2019-01-24T03:58:11.005Z,74.16
2019-01-24T04:00:40.884Z,73.82
2019-01-24T04:03:49.787Z,73.80
2019-01-24T04:09:32.497Z,73.58
2019-01-24T04:18:19.057Z,72.90
2019-01-24T04:21:27.858Z,72.80
2019-01-24T04:23:57.424Z,72.68
2019-01-24T04:29:52.228Z,72.49
2019-01-24T04:35:31.451Z,72.26
2019-01-24T04:38:40.115Z,72.41
2019-01-24T04:41:49.245Z,72.02
2019-01-24T04:47:46.419Z,72.32
2019-01-24T04:53:28.718Z,73.00
2019-01-24T04:59:14.380Z,73.17
2019-01-24T05:02:23.505Z,73.08
2019-01-24T05:05:32.899Z,72.90
2019-01-24T05:11:27.219Z,73.00
2019-01-24T05:17:12.308Z,73.86
2019-01-24T05:20:21.276Z,73.71
2019-01-24T05:23:30.515Z,74.09
2019-01-24T05:29:16.043Z,73.51
2019-01-24T05:32:25.294Z,73.67
2019-01-24T05:38:02.410Z,73.44
2019-01-24T05:43:46.767Z,73.52
2019-01-24T05:46:55.584Z,72.99
2019-01-24T05:49:25.144Z,73.14
2019-01-24T05:51:55.491Z,72.85
2019-01-24T05:55:04.469Z,72.83
2019-01-24T05:57:34.319Z,73.11
2019-01-24T06:03:00.100Z,73.08
2019-01-24T06:05:29.615Z,72.63
2019-01-24T06:07:59.162Z,72.84
2019-01-24T06:11:08.113Z,73.30
2019-01-24T06:13:40.057Z,74.03
2019-01-24T06:16:10.740Z,73.66
2019-01-24T06:18:40.457Z,73.35
2019-01-24T06:21:49.649Z,72.71
2019-01-24T06:24:58.575Z,73.28
2019-01-24T06:30:43.408Z,72.71
2019-01-24T06:33:13.911Z,72.92
2019-01-24T06:36:23.054Z,73.59
2019-01-24T06:38:52.631Z,73.31
2019-01-24T06:42:01.660Z,73.29
2019-01-24T06:44:31.587Z,72.96
2019-01-24T06:52:52.840Z,74.12
2019-01-24T06:55:34.701Z,73.86
2019-01-24T06:58:04.875Z,73.80
2019-01-24T07:03:50.021Z,74.48
2019-01-24T07:06:19.887Z,74.07
2019-01-24T07:08:49.657Z,73.46
2019-01-24T07:11:19.133Z,73.35
2019-01-24T07:14:28.951Z,73.48
2019-01-24T07:16:59.583Z,72.79
2019-01-24T07:22:55.282Z,73.22
2019-01-24T07:28:41.081Z,72.89
2019-01-24T07:31:11.026Z,72.90
2019-01-24T07:33:40.894Z,73.28
2019-01-24T07:36:50.607Z,73.03
2019-01-24T07:42:21.999Z,73.82
2019-01-24T07:45:30.926Z,73.41
2019-01-24T07:48:39.791Z,74.03
2019-01-24T07:54:15.090Z,74.04
2019-01-24T07:56:56.785Z,73.86
2019-01-24T07:59:28.216Z,74.67
2019-01-24T08:05:27.383Z,73.50
2019-01-24T08:07:57.669Z,73.46
2019-01-24T08:10:27.118Z,73.19
2019-01-24T08:12:56.648Z,73.79
2019-01-24T08:18:40.014Z,73.10
2019-01-24T08:21:49.244Z,72.35
2019-01-24T08:24:30.722Z,73.17
2019-01-24T08:33:23.582Z,70.97
2019-01-24T08:42:11.455Z,71.33
2019-01-24T08:50:45.857Z,71.43
2019-01-24T08:56:17.350Z,70.49
2019-01-24T08:59:29.641Z,70.85
2019-01-24T09:01:57.867Z,70.35
2019-01-24T09:04:27.505Z,70.94
2019-01-24T09:06:57.015Z,70.05
2019-01-24T09:09:30.511Z,70.76
2019-01-24T09:11:59.903Z,70.86
2019-01-24T09:15:08.672Z,71.20
2019-01-24T09:17:38.382Z,70.84
2019-01-24T09:20:10.604Z,70.83
2019-01-24T09:25:36.116Z,70.50
2019-01-24T09:31:20.811Z,70.21
2019-01-24T09:33:50.187Z,68.84
2019-01-24T09:36:19.630Z,69.51
2019-01-24T09:38:49.926Z,69.34
2019-01-24T09:45:08.018Z,68.52
2019-01-24T09:56:56.924Z,67.74
2019-01-24T10:00:06.119Z,67.99
2019-01-24T10:02:47.905Z,68.10
2019-01-24T10:08:22.709Z,68.35
2019-01-24T10:10:52.678Z,68.62
2019-01-24T10:13:22.152Z,68.96
2019-01-24T10:16:31.724Z,68.88
2019-01-24T10:31:08.336Z,69.83
2019-01-24T10:36:48.107Z,68.90
2019-01-24T10:39:18.808Z,67.52
2019-01-24T10:44:44.394Z,68.49
2019-01-24T10:53:30.381Z,67.66
2019-01-24T10:59:48.138Z,66.94
2019-01-24T11:05:43.782Z,68.28
2019-01-24T11:08:13.399Z,67.40
2019-01-24T11:10:42.915Z,67.39
2019-01-24T11:13:12.544Z,67.76
2019-01-24T11:19:09.086Z,69.12
2019-01-24T11:24:53.981Z,68.97
2019-01-24T11:27:23.414Z,69.14
2019-01-24T11:32:41.795Z,71.21
2019-01-24T11:35:51.959Z,71.41
2019-01-24T11:39:01.012Z,71.56
2019-01-24T11:41:31.407Z,71.51
2019-01-24T11:44:01.076Z,71.17
2019-01-24T11:46:31.035Z,70.97
2019-01-24T11:49:00.691Z,71.44
2019-01-24T11:54:38.010Z,70.00
2019-01-24T12:03:08.537Z,70.49
2019-01-24T12:05:38.190Z,70.47
2019-01-24T12:08:19.906Z,69.70
2019-01-24T12:17:19.929Z,70.70
2019-01-24T12:25:53.184Z,70.77
2019-01-24T12:31:32.215Z,70.77
2019-01-24T12:37:16.413Z,70.96
2019-01-24T12:48:51.407Z,72.19
2019-01-24T12:54:55.233Z,72.29
2019-01-24T13:03:29.937Z,72.80
2019-01-24T13:05:59.405Z,72.65
2019-01-24T13:09:08.463Z,73.06
2019-01-24T13:14:52.223Z,73.10
2019-01-24T13:21:02.093Z,73.29
2019-01-24T13:23:32.409Z,73.69
2019-01-24T13:26:02.037Z,73.73
2019-01-24T13:28:31.773Z,73.97
2019-01-24T13:31:01.594Z,73.60
2019-01-24T13:33:31.129Z,74.08
2019-01-24T13:36:40.016Z,73.68
2019-01-24T13:42:13.461Z,73.48
2019-01-24T13:45:22.788Z,73.33
2019-01-24T13:48:32.082Z,73.36
2019-01-24T13:54:27.768Z,73.45
2019-01-24T14:00:34.170Z,73.88
2019-01-24T14:03:42.510Z,74.00
2019-01-24T14:06:35.714Z,73.80
2019-01-24T14:12:31.853Z,74.06
2019-01-24T14:18:16.606Z,74.15
2019-01-24T14:24:34.677Z,73.28
2019-01-24T14:33:05.885Z,73.43
2019-01-24T14:35:36.051Z,72.74
2019-01-24T14:41:01.694Z,73.25
2019-01-24T14:43:31.151Z,73.05
2019-01-24T14:46:00.712Z,73.30
2019-01-24T14:48:49.192Z,73.86
2019-01-24T14:53:59.847Z,74.09
2019-01-24T14:56:31.225Z,73.89
2019-01-24T14:59:20.002Z,73.83
2019-01-24T15:01:49.928Z,74.10
2019-01-24T15:04:19.333Z,74.39
2019-01-24T15:06:48.902Z,74.34
2019-01-24T15:15:47.677Z,74.25
2019-01-24T15:18:17.379Z,74.62
2019-01-24T15:20:48.418Z,74.50
2019-01-24T15:23:18.105Z,74.11
2019-01-24T15:25:48.021Z,74.12
2019-01-24T15:28:17.837Z,74.23
2019-01-24T15:33:43.353Z,74.31
2019-01-24T15:40:01.095Z,74.48
2019-01-24T15:48:43.255Z,74.19
2019-01-24T15:51:52.514Z,74.21
2019-01-24T15:54:22.328Z,74.16
2019-01-24T15:57:11.349Z,73.98
2019-01-24T15:59:41.650Z,74.52
2019-01-24T16:05:25.584Z,74.50
2019-01-24T16:08:01.636Z,74.86
2019-01-24T16:13:23.448Z,74.17
2019-01-24T16:15:53.923Z,74.24
2019-01-24T16:18:23.911Z,74.85
2019-01-24T16:20:54.266Z,74.24
2019-01-24T16:23:24.069Z,74.35
2019-01-24T16:25:54.104Z,74.29
2019-01-24T16:31:19.998Z,74.10
2019-01-24T16:36:58.666Z,74.75
2019-01-24T16:40:07.450Z,74.51
2019-01-24T16:42:36.951Z,74.91
2019-01-24T16:45:27.188Z,74.65
2019-01-24T16:50:53.379Z,74.77
2019-01-24T16:53:23.511Z,75.26
2019-01-24T16:55:52.941Z,75.14
2019-01-24T16:58:41.506Z,75.37
2019-01-24T17:04:24.003Z,75.76
2019-01-24T17:06:53.660Z,75.99
2019-01-24T17:10:02.856Z,75.82
2019-01-24T17:12:35.018Z,75.82
2019-01-24T17:21:20.936Z,75.91
2019-01-24T17:29:52.927Z,75.76
2019-01-24T17:32:22.535Z,75.80
2019-01-24T17:34:53.654Z,75.03
2019-01-24T17:37:25.111Z,75.15
2019-01-24T17:39:54.838Z,74.95
2019-01-24T17:42:24.213Z,75.48
2019-01-24T17:44:53.765Z,75.79
2019-01-24T17:47:23.267Z,75.66
2019-01-24T17:49:52.716Z,75.25
2019-01-24T17:52:22.229Z,75.23
2019-01-24T17:54:56.694Z,75.67
2019-01-24T17:57:27.161Z,75.49
2019-01-24T17:59:58.272Z,75.86
2019-01-24T18:02:28.609Z,75.44
2019-01-24T18:04:58.831Z,74.65
2019-01-24T18:07:30.504Z,75.27
2019-01-24T18:10:00.940Z,75.66
2019-01-24T18:12:31.521Z,74.64
2019-01-24T18:15:01.873Z,75.30
2019-01-24T18:17:32.476Z,75.42
2019-01-24T18:20:07.464Z,75.50
2019-01-24T18:22:38.938Z,75.37
2019-01-24T18:25:11.072Z,75.09
2019-01-24T18:27:41.704Z,74.94
2019-01-24T18:30:20.225Z,75.24
2019-01-24T18:32:51.197Z,75.29
2019-01-24T18:35:25.967Z,75.35
2019-01-24T18:37:56.843Z,75.35
2019-01-24T18:40:28.364Z,74.67
2019-01-24T18:42:59.062Z,74.84
2019-01-24T18:46:10.100Z,75.21
2019-01-24T18:49:02.236Z,74.97
2019-01-24T18:54:49.160Z,75.06
2019-01-24T18:57:19.528Z,75.22
2019-01-24T18:59:49.827Z,74.70
2019-01-24T19:02:20.353Z,74.84
2019-01-24T19:04:50.909Z,74.91
2019-01-24T19:07:21.382Z,74.37
2019-01-24T19:09:51.945Z,74.51
2019-01-24T19:12:22.483Z,74.74
2019-01-24T19:14:53.226Z,74.37
2019-01-24T19:17:23.778Z,74.75
2019-01-24T19:23:42.236Z,74.40
2019-01-24T19:29:39.280Z,74.71
2019-01-24T19:35:26.269Z,73.94
2019-01-24T19:37:57.862Z,73.75
2019-01-24T19:40:28.603Z,74.72
2019-01-24T19:42:59.207Z,74.48
2019-01-24T19:45:30.496Z,74.13
2019-01-24T19:48:20.326Z,74.08
2019-01-24T19:50:51.716Z,73.91
2019-01-24T19:53:22.728Z,74.36
2019-01-24T19:55:54.071Z,74.37
2019-01-24T19:58:24.701Z,74.45
2019-01-24T20:01:33.893Z,74.59
2019-01-24T20:07:20.863Z,74.95
2019-01-24T20:10:31.137Z,74.57
2019-01-24T20:13:42.813Z,75.01
2019-01-24T20:16:13.571Z,75.03
2019-01-24T20:18:44.230Z,75.15
2019-01-24T20:21:17.604Z,75.64
2019-01-24T20:23:48.198Z,75.51
2019-01-24T20:26:19.773Z,75.66
2019-01-24T20:28:52.841Z,75.44
2019-01-24T20:31:23.524Z,75.37
2019-01-24T20:34:35.655Z,75.43
2019-01-24T20:37:06.417Z,75.55
2019-01-24T20:39:36.927Z,75.57
2019-01-24T20:42:07.235Z,75.64
2019-01-24T20:44:37.586Z,75.51
2019-01-24T20:47:09.345Z,75.46
2019-01-24T20:49:39.490Z,74.88
2019-01-24T20:52:09.650Z,74.72
2019-01-24T20:54:40.013Z,75.01
2019-01-24T20:57:11.509Z,75.43
2019-01-24T21:00:01.374Z,75.39
2019-01-24T21:02:32.862Z,75.44
2019-01-24T21:05:04.302Z,75.22
2019-01-24T21:07:34.565Z,74.90
2019-01-24T21:10:05.895Z,74.92
2019-01-24T21:12:36.318Z,75.05
2019-01-24T21:15:07.942Z,74.84
2019-01-24T21:17:38.740Z,75.10
2019-01-24T21:20:10.823Z,75.37
2019-01-24T21:22:40.961Z,75.48
2019-01-24T21:25:12.245Z,75.47
2019-01-24T21:28:21.926Z,74.72
2019-01-24T21:30:55.006Z,75.70
2019-01-24T21:33:24.776Z,75.18
2019-01-24T21:35:54.740Z,75.43
2019-01-24T21:38:24.426Z,75.25
2019-01-24T21:40:54.246Z,74.85
2019-01-24T21:43:23.735Z,75.00
2019-01-24T21:45:53.247Z,75.22
2019-01-24T21:48:22.815Z,75.42
2019-01-24T21:50:52.801Z,75.27
2019-01-24T21:53:22.294Z,75.55
2019-01-24T21:55:51.725Z,75.27
2019-01-24T21:58:21.722Z,75.16
2019-01-24T22:00:51.364Z,75.81
2019-01-24T22:03:20.814Z,75.72
2019-01-24T22:05:50.325Z,75.66
2019-01-24T22:08:19.699Z,75.16
2019-01-24T22:10:49.110Z,75.43
2019-01-24T22:13:18.677Z,75.05
2019-01-24T22:15:48.268Z,75.20
2019-01-24T22:21:13.391Z,75.67
2019-01-24T22:26:44.494Z,76.16
2019-01-24T22:29:13.869Z,75.83
2019-01-24T22:32:22.721Z,75.66
2019-01-24T22:34:52.899Z,75.64
2019-01-24T22:37:22.544Z,75.78
2019-01-24T22:39:52.205Z,75.85
2019-01-24T22:42:22.066Z,75.99
2019-01-24T22:44:55.847Z,76.20
2019-01-24T22:47:25.318Z,76.09
2019-01-24T22:49:54.635Z,76.38
2019-01-24T22:52:24.160Z,76.16
2019-01-24T22:54:53.770Z,76.25
2019-01-24T22:57:23.173Z,75.92
2019-01-24T22:59:53.008Z,76.21
2019-01-24T23:02:28.739Z,75.97
2019-01-24T23:04:58.846Z,76.14
2019-01-24T23:07:28.195Z,76.31
2019-01-24T23:09:57.553Z,76.48
2019-01-24T23:12:26.914Z,76.23
2019-01-24T23:15:16.058Z,76.29
2019-01-24T23:17:45.451Z,76.08
2019-01-24T23:23:11.499Z,76.25
2019-01-24T23:25:40.874Z,76.28
2019-01-24T23:28:10.416Z,76.34
2019-01-24T23:30:39.890Z,76.11
2019-01-24T23:33:09.270Z,76.33
2019-01-24T23:35:38.745Z,76.49
2019-01-24T23:38:08.310Z,76.60
2019-01-24T23:40:38.491Z,76.78
2019-01-24T23:43:08.015Z,76.76
2019-01-24T23:45:37.511Z,76.74
2019-01-24T23:48:07.319Z,76.71
2019-01-24T23:50:36.706Z,76.83
2019-01-24T23:53:06.329Z,76.79
2019-01-24T23:55:35.678Z,76.71
2019-01-24T23:58:05.438Z,76.76
